sensor_id;sensor_type;location;lat;lon;timestamp;temperature;humidity
17066;DHT22;23120;52.336;21.182;2022-08-21T00:00:22;21.00;73.70
17066;DHT22;23120;52.336;21.182;2022-08-21T00:02:54;21.00;73.70
17066;DHT22;23120;52.336;21.182;2022-08-21T00:05:22;20.90;73.60
17066;DHT22;23120;52.336;21.182;2022-08-21T00:07:49;20.90;73.60
17066;DHT22;23120;52.336;21.182;2022-08-21T00:10:17;20.90;73.60
17066;DHT22;23120;52.336;21.182;2022-08-21T00:12:44;20.80;73.50
17066;DHT22;23120;52.336;21.182;2022-08-21T00:15:13;20.80;73.50
17066;DHT22;23120;52.336;21.182;2022-08-21T00:17:40;20.80;73.60
17066;DHT22;23120;52.336;21.182;2022-08-21T00:20:11;20.70;73.70
17066;DHT22;23120;52.336;21.182;2022-08-21T00:22:38;20.70;73.80
17066;DHT22;23120;52.336;21.182;2022-08-21T00:25:06;20.70;74.00
17066;DHT22;23120;52.336;21.182;2022-08-21T00:27:33;20.70;74.20
17066;DHT22;23120;52.336;21.182;2022-08-21T00:30:00;20.70;74.20
17066;DHT22;23120;52.336;21.182;2022-08-21T00:32:28;20.60;74.10
17066;DHT22;23120;52.336;21.182;2022-08-21T00:34:55;20.60;74.10
17066;DHT22;23120;52.336;21.182;2022-08-21T00:37:23;20.50;74.20
17066;DHT22;23120;52.336;21.182;2022-08-21T00:39:50;20.50;74.10
17066;DHT22;23120;52.336;21.182;2022-08-21T00:42:17;20.50;74.20
17066;DHT22;23120;52.336;21.182;2022-08-21T00:44:47;20.50;74.40
17066;DHT22;23120;52.336;21.182;2022-08-21T00:47:14;20.40;74.40
17066;DHT22;23120;52.336;21.182;2022-08-21T00:49:41;20.40;74.40
17066;DHT22;23120;52.336;21.182;2022-08-21T00:52:11;20.40;74.50
17066;DHT22;23120;52.336;21.182;2022-08-21T00:54:41;20.30;74.40
17066;DHT22;23120;52.336;21.182;2022-08-21T00:57:12;20.30;74.60
17066;DHT22;23120;52.336;21.182;2022-08-21T00:59:44;20.30;74.60
17066;DHT22;23120;52.336;21.182;2022-08-21T01:02:12;20.30;74.80
17066;DHT22;23120;52.336;21.182;2022-08-21T01:04:39;20.20;74.70
17066;DHT22;23120;52.336;21.182;2022-08-21T01:07:06;20.20;74.60
17066;DHT22;23120;52.336;21.182;2022-08-21T01:09:33;20.20;74.70
17066;DHT22;23120;52.336;21.182;2022-08-21T01:12:02;20.20;74.70
17066;DHT22;23120;52.336;21.182;2022-08-21T01:14:30;20.10;75.00
17066;DHT22;23120;52.336;21.182;2022-08-21T01:16:58;20.00;75.00
17066;DHT22;23120;52.336;21.182;2022-08-21T01:19:26;20.00;75.30
17066;DHT22;23120;52.336;21.182;2022-08-21T01:21:55;20.00;75.20
17066;DHT22;23120;52.336;21.182;2022-08-21T01:24:22;20.00;75.50
17066;DHT22;23120;52.336;21.182;2022-08-21T01:26:49;19.90;75.20
17066;DHT22;23120;52.336;21.182;2022-08-21T01:29:25;19.90;75.40
17066;DHT22;23120;52.336;21.182;2022-08-21T01:31:53;19.90;75.40
17066;DHT22;23120;52.336;21.182;2022-08-21T01:34:20;19.90;75.20
17066;DHT22;23120;52.336;21.182;2022-08-21T01:36:47;19.80;75.20
17066;DHT22;23120;52.336;21.182;2022-08-21T01:39:16;19.80;75.40
17066;DHT22;23120;52.336;21.182;2022-08-21T01:41:43;19.80;75.30
17066;DHT22;23120;52.336;21.182;2022-08-21T01:44:10;19.70;75.20
17066;DHT22;23120;52.336;21.182;2022-08-21T01:46:37;19.70;75.20
17066;DHT22;23120;52.336;21.182;2022-08-21T01:49:05;19.70;75.00
17066;DHT22;23120;52.336;21.182;2022-08-21T01:51:32;19.60;75.00
17066;DHT22;23120;52.336;21.182;2022-08-21T01:53:59;19.60;75.10
17066;DHT22;23120;52.336;21.182;2022-08-21T01:56:27;19.60;75.20
17066;DHT22;23120;52.336;21.182;2022-08-21T01:58:54;19.50;75.20
17066;DHT22;23120;52.336;21.182;2022-08-21T02:01:21;19.50;75.30
17066;DHT22;23120;52.336;21.182;2022-08-21T02:03:48;19.50;75.40
17066;DHT22;23120;52.336;21.182;2022-08-21T02:06:15;19.50;75.60
17066;DHT22;23120;52.336;21.182;2022-08-21T02:08:43;19.50;75.60
17066;DHT22;23120;52.336;21.182;2022-08-21T02:11:10;19.40;75.60
17066;DHT22;23120;52.336;21.182;2022-08-21T02:13:38;19.40;75.60
17066;DHT22;23120;52.336;21.182;2022-08-21T02:16:05;19.40;75.80
17066;DHT22;23120;52.336;21.182;2022-08-21T02:18:33;19.30;75.70
17066;DHT22;23120;52.336;21.182;2022-08-21T02:21:00;19.30;75.70
17066;DHT22;23120;52.336;21.182;2022-08-21T02:23:27;19.30;75.70
17066;DHT22;23120;52.336;21.182;2022-08-21T02:25:54;19.30;75.70
17066;DHT22;23120;52.336;21.182;2022-08-21T02:28:22;19.20;75.60
17066;DHT22;23120;52.336;21.182;2022-08-21T02:30:50;19.20;75.60
17066;DHT22;23120;52.336;21.182;2022-08-21T02:33:18;19.20;75.60
17066;DHT22;23120;52.336;21.182;2022-08-21T02:35:46;19.20;75.60
17066;DHT22;23120;52.336;21.182;2022-08-21T02:38:15;19.10;75.50
17066;DHT22;23120;52.336;21.182;2022-08-21T02:40:44;19.10;75.60
17066;DHT22;23120;52.336;21.182;2022-08-21T02:43:12;19.00;75.40
17066;DHT22;23120;52.336;21.182;2022-08-21T02:45:39;19.00;75.70
17066;DHT22;23120;52.336;21.182;2022-08-21T02:48:10;19.00;75.70
17066;DHT22;23120;52.336;21.182;2022-08-21T02:50:40;19.00;75.80
17066;DHT22;23120;52.336;21.182;2022-08-21T02:53:11;19.00;75.80
17066;DHT22;23120;52.336;21.182;2022-08-21T02:55:38;18.90;76.50
17066;DHT22;23120;52.336;21.182;2022-08-21T02:58:07;18.90;76.00
17066;DHT22;23120;52.336;21.182;2022-08-21T03:00:35;18.90;75.90
17066;DHT22;23120;52.336;21.182;2022-08-21T03:03:04;18.90;76.00
17066;DHT22;23120;52.336;21.182;2022-08-21T03:05:34;18.80;75.90
17066;DHT22;23120;52.336;21.182;2022-08-21T03:08:04;18.80;76.10
17066;DHT22;23120;52.336;21.182;2022-08-21T03:10:32;18.80;76.30
17066;DHT22;23120;52.336;21.182;2022-08-21T03:12:59;18.70;76.20
17066;DHT22;23120;52.336;21.182;2022-08-21T03:15:25;18.70;76.60
17066;DHT22;23120;52.336;21.182;2022-08-21T03:17:52;18.70;76.60
17066;DHT22;23120;52.336;21.182;2022-08-21T03:20:23;18.70;76.70
17066;DHT22;23120;52.336;21.182;2022-08-21T03:22:52;18.60;76.60
17066;DHT22;23120;52.336;21.182;2022-08-21T03:25:19;18.60;76.60
17066;DHT22;23120;52.336;21.182;2022-08-21T03:27:46;18.60;76.80
17066;DHT22;23120;52.336;21.182;2022-08-21T03:30:14;18.60;76.80
17066;DHT22;23120;52.336;21.182;2022-08-21T03:32:42;18.60;76.80
17066;DHT22;23120;52.336;21.182;2022-08-21T03:35:09;18.50;76.80
17066;DHT22;23120;52.336;21.182;2022-08-21T03:37:36;18.50;76.80
17066;DHT22;23120;52.336;21.182;2022-08-21T03:40:05;18.50;77.00
17066;DHT22;23120;52.336;21.182;2022-08-21T03:42:32;18.50;77.20
17066;DHT22;23120;52.336;21.182;2022-08-21T03:44:59;18.50;77.10
17066;DHT22;23120;52.336;21.182;2022-08-21T03:47:26;18.40;77.20
17066;DHT22;23120;52.336;21.182;2022-08-21T03:49:53;18.40;77.30
17066;DHT22;23120;52.336;21.182;2022-08-21T03:52:20;18.40;77.40
17066;DHT22;23120;52.336;21.182;2022-08-21T03:54:47;18.40;77.70
17066;DHT22;23120;52.336;21.182;2022-08-21T03:57:18;18.40;77.60
17066;DHT22;23120;52.336;21.182;2022-08-21T03:59:45;18.40;77.70
17066;DHT22;23120;52.336;21.182;2022-08-21T04:02:13;18.40;77.70
17066;DHT22;23120;52.336;21.182;2022-08-21T04:04:42;18.40;77.70
17066;DHT22;23120;52.336;21.182;2022-08-21T04:07:09;18.40;77.70
17066;DHT22;23120;52.336;21.182;2022-08-21T04:09:36;18.40;77.70
17066;DHT22;23120;52.336;21.182;2022-08-21T04:12:03;18.40;78.00
17066;DHT22;23120;52.336;21.182;2022-08-21T04:14:32;18.40;78.00
17066;DHT22;23120;52.336;21.182;2022-08-21T04:16:59;18.50;78.30
17066;DHT22;23120;52.336;21.182;2022-08-21T04:19:26;18.40;78.20
17066;DHT22;23120;52.336;21.182;2022-08-21T04:21:53;18.40;78.40
17066;DHT22;23120;52.336;21.182;2022-08-21T04:24:20;18.40;78.60
17066;DHT22;23120;52.336;21.182;2022-08-21T04:26:46;18.50;79.00
17066;DHT22;23120;52.336;21.182;2022-08-21T04:29:13;18.50;79.10
17066;DHT22;23120;52.336;21.182;2022-08-21T04:31:41;18.50;79.10
17066;DHT22;23120;52.336;21.182;2022-08-21T04:34:09;18.50;79.20
17066;DHT22;23120;52.336;21.182;2022-08-21T04:36:35;18.60;79.40
17066;DHT22;23120;52.336;21.182;2022-08-21T04:39:02;18.60;79.40
17066;DHT22;23120;52.336;21.182;2022-08-21T04:41:29;18.60;79.60
17066;DHT22;23120;52.336;21.182;2022-08-21T04:43:56;18.70;79.30
17066;DHT22;23120;52.336;21.182;2022-08-21T04:46:23;18.70;79.50
17066;DHT22;23120;52.336;21.182;2022-08-21T04:48:52;18.80;79.80
17066;DHT22;23120;52.336;21.182;2022-08-21T04:51:23;18.80;79.70
17066;DHT22;23120;52.336;21.182;2022-08-21T04:53:54;18.90;79.90
17066;DHT22;23120;52.336;21.182;2022-08-21T04:56:25;18.90;79.70
17066;DHT22;23120;52.336;21.182;2022-08-21T04:58:56;19.00;79.90
17066;DHT22;23120;52.336;21.182;2022-08-21T05:01:25;19.00;79.40
17066;DHT22;23120;52.336;21.182;2022-08-21T05:03:57;19.10;80.20
17066;DHT22;23120;52.336;21.182;2022-08-21T05:06:26;19.10;79.50
17066;DHT22;23120;52.336;21.182;2022-08-21T05:08:55;19.20;79.30
17066;DHT22;23120;52.336;21.182;2022-08-21T05:11:22;19.20;79.30
17066;DHT22;23120;52.336;21.182;2022-08-21T05:13:50;19.30;79.30
17066;DHT22;23120;52.336;21.182;2022-08-21T05:16:17;19.30;79.20
17066;DHT22;23120;52.336;21.182;2022-08-21T05:18:43;19.40;79.40
17066;DHT22;23120;52.336;21.182;2022-08-21T05:21:12;19.40;79.10
17066;DHT22;23120;52.336;21.182;2022-08-21T05:23:38;19.50;79.30
17066;DHT22;23120;52.336;21.182;2022-08-21T05:26:05;19.60;79.70
17066;DHT22;23120;52.336;21.182;2022-08-21T05:28:32;19.60;79.70
17066;DHT22;23120;52.336;21.182;2022-08-21T05:30:59;19.70;79.80
17066;DHT22;23120;52.336;21.182;2022-08-21T05:33:26;19.80;79.90
17066;DHT22;23120;52.336;21.182;2022-08-21T05:35:54;19.80;79.90
17066;DHT22;23120;52.336;21.182;2022-08-21T05:38:24;19.90;79.70
17066;DHT22;23120;52.336;21.182;2022-08-21T05:40:53;20.00;79.50
17066;DHT22;23120;52.336;21.182;2022-08-21T05:43:20;20.00;79.20
17066;DHT22;23120;52.336;21.182;2022-08-21T05:45:46;20.10;79.20
17066;DHT22;23120;52.336;21.182;2022-08-21T05:48:15;20.20;79.30
17066;DHT22;23120;52.336;21.182;2022-08-21T05:50:44;20.30;79.70
17066;DHT22;23120;52.336;21.182;2022-08-21T05:53:12;20.30;79.60
17066;DHT22;23120;52.336;21.182;2022-08-21T05:55:40;20.40;79.40
17066;DHT22;23120;52.336;21.182;2022-08-21T05:58:07;20.50;79.30
17066;DHT22;23120;52.336;21.182;2022-08-21T06:00:34;20.50;79.00
17066;DHT22;23120;52.336;21.182;2022-08-21T06:03:01;20.60;79.00
17066;DHT22;23120;52.336;21.182;2022-08-21T06:05:28;20.70;79.00
17066;DHT22;23120;52.336;21.182;2022-08-21T06:07:55;20.70;78.80
17066;DHT22;23120;52.336;21.182;2022-08-21T06:10:21;20.80;78.80
17066;DHT22;23120;52.336;21.182;2022-08-21T06:12:54;20.80;78.30
17066;DHT22;23120;52.336;21.182;2022-08-21T06:15:21;20.90;77.90
17066;DHT22;23120;52.336;21.182;2022-08-21T06:17:48;21.00;77.60
17066;DHT22;23120;52.336;21.182;2022-08-21T06:20:15;21.10;77.50
17066;DHT22;23120;52.336;21.182;2022-08-21T06:22:42;21.20;77.60
17066;DHT22;23120;52.336;21.182;2022-08-21T06:25:08;21.20;77.50
17066;DHT22;23120;52.336;21.182;2022-08-21T06:27:36;21.30;77.40
17066;DHT22;23120;52.336;21.182;2022-08-21T06:30:06;21.40;77.10
17066;DHT22;23120;52.336;21.182;2022-08-21T06:32:33;21.50;77.00
17066;DHT22;23120;52.336;21.182;2022-08-21T06:35:00;21.60;76.70
17066;DHT22;23120;52.336;21.182;2022-08-21T06:37:27;21.70;76.60
17066;DHT22;23120;52.336;21.182;2022-08-21T06:39:54;21.80;76.40
17066;DHT22;23120;52.336;21.182;2022-08-21T06:42:21;21.90;76.20
17066;DHT22;23120;52.336;21.182;2022-08-21T06:44:48;22.10;76.10
17066;DHT22;23120;52.336;21.182;2022-08-21T06:47:16;22.20;75.80
17066;DHT22;23120;52.336;21.182;2022-08-21T06:49:43;22.30;75.50
17066;DHT22;23120;52.336;21.182;2022-08-21T06:52:10;22.40;75.20
17066;DHT22;23120;52.336;21.182;2022-08-21T06:54:38;22.50;75.20
17066;DHT22;23120;52.336;21.182;2022-08-21T06:57:06;22.60;75.30
17066;DHT22;23120;52.336;21.182;2022-08-21T06:59:33;22.70;75.30
17066;DHT22;23120;52.336;21.182;2022-08-21T07:02:00;22.70;75.10
17066;DHT22;23120;52.336;21.182;2022-08-21T07:04:28;22.80;75.00
17066;DHT22;23120;52.336;21.182;2022-08-21T07:06:56;22.90;75.00
17066;DHT22;23120;52.336;21.182;2022-08-21T07:09:24;23.00;74.90
17066;DHT22;23120;52.336;21.182;2022-08-21T07:11:53;23.10;74.90
17066;DHT22;23120;52.336;21.182;2022-08-21T07:14:20;23.20;74.90
17066;DHT22;23120;52.336;21.182;2022-08-21T07:16:47;23.30;74.70
17066;DHT22;23120;52.336;21.182;2022-08-21T07:19:14;23.40;74.60
17066;DHT22;23120;52.336;21.182;2022-08-21T07:21:42;23.50;74.50
17066;DHT22;23120;52.336;21.182;2022-08-21T07:24:09;23.60;74.50
17066;DHT22;23120;52.336;21.182;2022-08-21T07:26:36;23.70;74.30
17066;DHT22;23120;52.336;21.182;2022-08-21T07:29:03;23.80;74.30
17066;DHT22;23120;52.336;21.182;2022-08-21T07:31:31;23.90;74.30
17066;DHT22;23120;52.336;21.182;2022-08-21T07:33:58;24.00;74.30
17066;DHT22;23120;52.336;21.182;2022-08-21T07:36:25;24.00;74.20
17066;DHT22;23120;52.336;21.182;2022-08-21T07:38:53;24.10;74.10
17066;DHT22;23120;52.336;21.182;2022-08-21T07:41:24;24.20;74.10
17066;DHT22;23120;52.336;21.182;2022-08-21T07:43:51;24.20;74.10
17066;DHT22;23120;52.336;21.182;2022-08-21T07:46:18;24.30;74.10
17066;DHT22;23120;52.336;21.182;2022-08-21T07:48:45;24.40;73.90
17066;DHT22;23120;52.336;21.182;2022-08-21T07:51:14;24.50;73.80
17066;DHT22;23120;52.336;21.182;2022-08-21T07:53:41;24.60;73.90
17066;DHT22;23120;52.336;21.182;2022-08-21T07:56:09;24.70;73.70
17066;DHT22;23120;52.336;21.182;2022-08-21T07:58:37;24.70;73.60
17066;DHT22;23120;52.336;21.182;2022-08-21T08:01:05;24.80;73.60
17066;DHT22;23120;52.336;21.182;2022-08-21T08:03:32;24.90;73.40
17066;DHT22;23120;52.336;21.182;2022-08-21T08:06:02;25.00;73.40
17066;DHT22;23120;52.336;21.182;2022-08-21T08:08:30;25.00;73.20
17066;DHT22;23120;52.336;21.182;2022-08-21T08:11:01;25.10;73.10
17066;DHT22;23120;52.336;21.182;2022-08-21T08:13:38;25.20;73.10
17066;DHT22;23120;52.336;21.182;2022-08-21T08:16:05;25.30;73.10
17066;DHT22;23120;52.336;21.182;2022-08-21T08:18:32;25.40;72.90
17066;DHT22;23120;52.336;21.182;2022-08-21T08:21:02;25.50;72.80
17066;DHT22;23120;52.336;21.182;2022-08-21T08:23:30;25.60;72.60
17066;DHT22;23120;52.336;21.182;2022-08-21T08:25:57;25.70;72.60
17066;DHT22;23120;52.336;21.182;2022-08-21T08:28:28;25.80;72.70
17066;DHT22;23120;52.336;21.182;2022-08-21T08:30:58;25.90;72.30
17066;DHT22;23120;52.336;21.182;2022-08-21T08:33:28;26.00;72.20
17066;DHT22;23120;52.336;21.182;2022-08-21T08:35:55;26.10;72.10
17066;DHT22;23120;52.336;21.182;2022-08-21T08:38:25;26.20;71.90
17066;DHT22;23120;52.336;21.182;2022-08-21T08:40:58;26.20;71.50
17066;DHT22;23120;52.336;21.182;2022-08-21T08:43:31;26.30;71.30
17066;DHT22;23120;52.336;21.182;2022-08-21T08:46:08;26.40;71.20
17066;DHT22;23120;52.336;21.182;2022-08-21T08:48:43;26.50;71.00
17066;DHT22;23120;52.336;21.182;2022-08-21T08:51:19;26.60;70.90
17066;DHT22;23120;52.336;21.182;2022-08-21T08:53:51;26.70;70.80
17066;DHT22;23120;52.336;21.182;2022-08-21T08:56:30;26.80;70.60
17066;DHT22;23120;52.336;21.182;2022-08-21T08:59:01;26.90;67.80
17066;DHT22;23120;52.336;21.182;2022-08-21T09:01:34;27.00;67.50
17066;DHT22;23120;52.336;21.182;2022-08-21T09:04:06;27.00;67.70
17066;DHT22;23120;52.336;21.182;2022-08-21T09:07:04;27.20;67.90
17066;DHT22;23120;52.336;21.182;2022-08-21T09:09:49;27.30;68.10
17066;DHT22;23120;52.336;21.182;2022-08-21T09:12:29;27.50;68.10
17066;DHT22;23120;52.336;21.182;2022-08-21T09:15:11;27.70;68.20
17066;DHT22;23120;52.336;21.182;2022-08-21T09:17:56;27.80;67.90
17066;DHT22;23120;52.336;21.182;2022-08-21T09:20:38;28.00;68.80
17066;DHT22;23120;52.336;21.182;2022-08-21T09:23:17;28.10;68.00
17066;DHT22;23120;52.336;21.182;2022-08-21T09:25:58;28.20;67.80
17066;DHT22;23120;52.336;21.182;2022-08-21T09:28:25;28.30;67.40
17066;DHT22;23120;52.336;21.182;2022-08-21T09:30:55;28.40;67.00
17066;DHT22;23120;52.336;21.182;2022-08-21T09:33:24;28.50;67.00
17066;DHT22;23120;52.336;21.182;2022-08-21T09:35:54;28.60;66.80
17066;DHT22;23120;52.336;21.182;2022-08-21T09:38:30;28.80;65.80
17066;DHT22;23120;52.336;21.182;2022-08-21T09:41:01;28.80;65.40
17066;DHT22;23120;52.336;21.182;2022-08-21T09:43:28;28.80;65.70
17066;DHT22;23120;52.336;21.182;2022-08-21T09:46:08;29.00;66.00
17066;DHT22;23120;52.336;21.182;2022-08-21T09:48:45;29.00;64.70
17066;DHT22;23120;52.336;21.182;2022-08-21T09:51:15;29.10;64.50
17066;DHT22;23120;52.336;21.182;2022-08-21T09:53:45;29.10;64.50
17066;DHT22;23120;52.336;21.182;2022-08-21T09:56:20;29.10;64.50
17066;DHT22;23120;52.336;21.182;2022-08-21T09:59:14;29.10;64.30
17066;DHT22;23120;52.336;21.182;2022-08-21T10:01:43;29.20;64.50
17066;DHT22;23120;52.336;21.182;2022-08-21T10:04:12;29.30;64.80
17066;DHT22;23120;52.336;21.182;2022-08-21T10:06:40;29.40;64.20
17066;DHT22;23120;52.336;21.182;2022-08-21T10:09:09;29.50;64.10
17066;DHT22;23120;52.336;21.182;2022-08-21T10:11:36;29.50;64.10
17066;DHT22;23120;52.336;21.182;2022-08-21T10:14:14;29.60;64.00
17066;DHT22;23120;52.336;21.182;2022-08-21T10:16:54;29.70;63.60
17066;DHT22;23120;52.336;21.182;2022-08-21T10:19:34;29.80;63.70
17066;DHT22;23120;52.336;21.182;2022-08-21T10:22:15;29.90;63.40
17066;DHT22;23120;52.336;21.182;2022-08-21T10:24:52;30.10;62.40
17066;DHT22;23120;52.336;21.182;2022-08-21T10:27:32;30.20;61.90
17066;DHT22;23120;52.336;21.182;2022-08-21T10:30:03;30.30;62.50
17066;DHT22;23120;52.336;21.182;2022-08-21T10:33:03;30.40;62.70
17066;DHT22;23120;52.336;21.182;2022-08-21T10:35:40;30.50;62.40
17066;DHT22;23120;52.336;21.182;2022-08-21T10:41:14;30.70;61.60
17066;DHT22;23120;52.336;21.182;2022-08-21T10:43:50;30.80;61.20
17066;DHT22;23120;52.336;21.182;2022-08-21T10:46:37;30.90;62.00
17066;DHT22;23120;52.336;21.182;2022-08-21T10:49:14;31.10;61.80
17066;DHT22;23120;52.336;21.182;2022-08-21T10:51:52;31.10;60.10
17066;DHT22;23120;52.336;21.182;2022-08-21T10:54:28;31.20;59.80
17066;DHT22;23120;52.336;21.182;2022-08-21T10:57:00;31.30;59.50
17066;DHT22;23120;52.336;21.182;2022-08-21T10:59:36;31.40;59.60
17066;DHT22;23120;52.336;21.182;2022-08-21T11:02:15;31.50;58.80
17066;DHT22;23120;52.336;21.182;2022-08-21T11:04:51;31.60;58.80
17066;DHT22;23120;52.336;21.182;2022-08-21T11:07:26;31.70;57.90
17066;DHT22;23120;52.336;21.182;2022-08-21T11:09:57;31.80;57.30
17066;DHT22;23120;52.336;21.182;2022-08-21T11:12:34;31.80;57.90
17066;DHT22;23120;52.336;21.182;2022-08-21T11:15:07;31.80;58.30
17066;DHT22;23120;52.336;21.182;2022-08-21T11:17:45;31.90;58.30
17066;DHT22;23120;52.336;21.182;2022-08-21T11:20:20;31.90;58.80
17066;DHT22;23120;52.336;21.182;2022-08-21T11:22:54;32.00;58.80
17066;DHT22;23120;52.336;21.182;2022-08-21T11:25:34;32.10;57.70
17066;DHT22;23120;52.336;21.182;2022-08-21T11:28:05;32.20;58.30
17066;DHT22;23120;52.336;21.182;2022-08-21T11:30:39;32.30;58.20
17066;DHT22;23120;52.336;21.182;2022-08-21T11:33:23;32.30;58.20
17066;DHT22;23120;52.336;21.182;2022-08-21T11:35:59;32.40;58.50
17066;DHT22;23120;52.336;21.182;2022-08-21T11:38:35;32.50;57.90
17066;DHT22;23120;52.336;21.182;2022-08-21T11:41:14;32.50;57.40
17066;DHT22;23120;52.336;21.182;2022-08-21T11:43:46;32.50;56.50
17066;DHT22;23120;52.336;21.182;2022-08-21T11:46:20;32.50;55.80
17066;DHT22;23120;52.336;21.182;2022-08-21T11:49:03;32.40;55.70
17066;DHT22;23120;52.336;21.182;2022-08-21T11:51:37;32.40;56.60
17066;DHT22;23120;52.336;21.182;2022-08-21T11:54:12;32.30;55.80
17066;DHT22;23120;52.336;21.182;2022-08-21T11:56:42;32.30;55.70
17066;DHT22;23120;52.336;21.182;2022-08-21T11:59:16;32.30;55.70
17066;DHT22;23120;52.336;21.182;2022-08-21T12:01:47;32.30;55.30
17066;DHT22;23120;52.336;21.182;2022-08-21T12:04:22;32.30;55.30
17066;DHT22;23120;52.336;21.182;2022-08-21T12:06:49;32.30;55.10
17066;DHT22;23120;52.336;21.182;2022-08-21T12:09:32;32.30;55.80
17066;DHT22;23120;52.336;21.182;2022-08-21T12:12:04;32.40;55.80
17066;DHT22;23120;52.336;21.182;2022-08-21T12:14:41;32.30;55.90
17066;DHT22;23120;52.336;21.182;2022-08-21T12:17:17;32.20;56.40
17066;DHT22;23120;52.336;21.182;2022-08-21T12:19:44;32.10;57.20
17066;DHT22;23120;52.336;21.182;2022-08-21T12:22:13;32.20;56.70
17066;DHT22;23120;52.336;21.182;2022-08-21T12:24:48;32.10;56.10
17066;DHT22;23120;52.336;21.182;2022-08-21T12:27:22;32.10;55.40
17066;DHT22;23120;52.336;21.182;2022-08-21T12:29:55;32.10;55.10
17066;DHT22;23120;52.336;21.182;2022-08-21T12:32:27;32.20;55.50
17066;DHT22;23120;52.336;21.182;2022-08-21T12:35:01;32.20;55.10
17066;DHT22;23120;52.336;21.182;2022-08-21T12:37:37;32.30;55.10
17066;DHT22;23120;52.336;21.182;2022-08-21T12:40:23;32.20;55.00
17066;DHT22;23120;52.336;21.182;2022-08-21T12:42:53;32.20;55.10
17066;DHT22;23120;52.336;21.182;2022-08-21T12:45:28;32.20;53.10
17066;DHT22;23120;52.336;21.182;2022-08-21T12:47:58;32.10;54.10
17066;DHT22;23120;52.336;21.182;2022-08-21T12:50:33;32.10;53.90
17066;DHT22;23120;52.336;21.182;2022-08-21T12:53:05;32.00;54.10
17066;DHT22;23120;52.336;21.182;2022-08-21T12:55:40;32.00;54.30
17066;DHT22;23120;52.336;21.182;2022-08-21T12:58:17;31.90;54.20
17066;DHT22;23120;52.336;21.182;2022-08-21T13:00:51;31.80;54.20
17066;DHT22;23120;52.336;21.182;2022-08-21T13:03:19;31.80;54.50
17066;DHT22;23120;52.336;21.182;2022-08-21T13:05:46;31.70;54.40
17066;DHT22;23120;52.336;21.182;2022-08-21T13:08:20;31.70;54.20
17066;DHT22;23120;52.336;21.182;2022-08-21T13:10:55;31.80;54.00
17066;DHT22;23120;52.336;21.182;2022-08-21T13:13:26;31.80;54.10
17066;DHT22;23120;52.336;21.182;2022-08-21T13:15:57;31.80;53.50
17066;DHT22;23120;52.336;21.182;2022-08-21T13:18:27;31.90;53.10
17066;DHT22;23120;52.336;21.182;2022-08-21T13:21:04;32.00;53.10
17066;DHT22;23120;52.336;21.182;2022-08-21T13:23:32;31.90;53.70
17066;DHT22;23120;52.336;21.182;2022-08-21T13:26:00;31.90;53.80
17066;DHT22;23120;52.336;21.182;2022-08-21T13:28:32;32.00;54.00
17066;DHT22;23120;52.336;21.182;2022-08-21T13:31:00;32.00;53.90
17066;DHT22;23120;52.336;21.182;2022-08-21T13:33:30;32.00;54.80
17066;DHT22;23120;52.336;21.182;2022-08-21T13:36:03;32.10;53.80
17066;DHT22;23120;52.336;21.182;2022-08-21T13:38:33;32.10;53.50
17066;DHT22;23120;52.336;21.182;2022-08-21T13:41:06;32.20;52.60
17066;DHT22;23120;52.336;21.182;2022-08-21T13:43:36;32.30;52.60
17066;DHT22;23120;52.336;21.182;2022-08-21T13:46:09;32.40;52.80
17066;DHT22;23120;52.336;21.182;2022-08-21T13:48:37;32.50;52.50
17066;DHT22;23120;52.336;21.182;2022-08-21T13:51:05;32.60;52.70
17066;DHT22;23120;52.336;21.182;2022-08-21T13:53:34;32.70;51.50
17066;DHT22;23120;52.336;21.182;2022-08-21T13:56:03;32.70;50.80
17066;DHT22;23120;52.336;21.182;2022-08-21T13:58:32;32.80;51.30
17066;DHT22;23120;52.336;21.182;2022-08-21T14:01:01;32.90;50.40
17066;DHT22;23120;52.336;21.182;2022-08-21T14:03:32;32.90;50.60
17066;DHT22;23120;52.336;21.182;2022-08-21T14:06:00;33.00;51.30
17066;DHT22;23120;52.336;21.182;2022-08-21T14:08:31;33.00;51.40
17066;DHT22;23120;52.336;21.182;2022-08-21T14:11:00;33.10;51.00
17066;DHT22;23120;52.336;21.182;2022-08-21T14:13:46;33.10;50.90
17066;DHT22;23120;52.336;21.182;2022-08-21T14:16:19;33.20;50.60
17066;DHT22;23120;52.336;21.182;2022-08-21T14:18:49;33.20;50.50
17066;DHT22;23120;52.336;21.182;2022-08-21T14:21:27;33.20;50.20
17066;DHT22;23120;52.336;21.182;2022-08-21T14:24:06;33.30;50.80
17066;DHT22;23120;52.336;21.182;2022-08-21T14:26:42;33.30;50.30
17066;DHT22;23120;52.336;21.182;2022-08-21T14:29:14;33.30;49.30
17066;DHT22;23120;52.336;21.182;2022-08-21T14:31:42;33.30;49.10
17066;DHT22;23120;52.336;21.182;2022-08-21T14:34:12;33.40;49.20
17066;DHT22;23120;52.336;21.182;2022-08-21T14:36:42;33.40;50.10
17066;DHT22;23120;52.336;21.182;2022-08-21T14:39:09;33.40;49.70
17066;DHT22;23120;52.336;21.182;2022-08-21T14:41:37;33.40;50.10
17066;DHT22;23120;52.336;21.182;2022-08-21T14:44:07;33.40;50.20
17066;DHT22;23120;52.336;21.182;2022-08-21T14:46:36;33.40;49.70
17066;DHT22;23120;52.336;21.182;2022-08-21T14:49:05;33.40;49.70
17066;DHT22;23120;52.336;21.182;2022-08-21T14:51:32;33.40;49.70
17066;DHT22;23120;52.336;21.182;2022-08-21T14:53:59;33.40;50.00
17066;DHT22;23120;52.336;21.182;2022-08-21T14:56:26;33.40;50.30
17066;DHT22;23120;52.336;21.182;2022-08-21T14:58:53;33.40;50.40
17066;DHT22;23120;52.336;21.182;2022-08-21T15:01:22;33.30;50.40
17066;DHT22;23120;52.336;21.182;2022-08-21T15:03:50;33.30;50.20
17066;DHT22;23120;52.336;21.182;2022-08-21T15:06:17;33.30;50.40
17066;DHT22;23120;52.336;21.182;2022-08-21T15:08:46;33.30;49.80
17066;DHT22;23120;52.336;21.182;2022-08-21T15:11:19;33.20;50.60
17066;DHT22;23120;52.336;21.182;2022-08-21T15:13:46;33.20;49.60
17066;DHT22;23120;52.336;21.182;2022-08-21T15:16:13;33.10;50.10
17066;DHT22;23120;52.336;21.182;2022-08-21T15:18:41;33.00;49.80
17066;DHT22;23120;52.336;21.182;2022-08-21T15:21:09;33.10;50.30
17066;DHT22;23120;52.336;21.182;2022-08-21T15:23:36;33.10;50.50
17066;DHT22;23120;52.336;21.182;2022-08-21T15:26:04;33.10;50.50
17066;DHT22;23120;52.336;21.182;2022-08-21T15:28:31;33.10;50.50
17066;DHT22;23120;52.336;21.182;2022-08-21T15:31:00;33.10;50.40
17066;DHT22;23120;52.336;21.182;2022-08-21T15:33:27;33.10;50.40
17066;DHT22;23120;52.336;21.182;2022-08-21T15:35:54;33.10;50.50